sensor_id;sensor_type;location;lat;lon;timestamp;P1;durP1;ratioP1;P2;durP2;ratioP2
7410;SDS011;3747;48.628;9.058;2022-08-27T00:01:12;28.23;;;23.00;;
7410;SDS011;3747;48.628;9.058;2022-08-27T00:03:41;26.93;;;22.30;;
7410;SDS011;3747;48.628;9.058;2022-08-27T00:06:08;27.67;;;22.97;;
7410;SDS011;3747;48.628;9.058;2022-08-27T00:08:38;29.53;;;22.70;;
7410;SDS011;3747;48.628;9.058;2022-08-27T00:11:04;28.73;;;23.87;;
7410;SDS011;3747;48.628;9.058;2022-08-27T00:13:31;30.17;;;22.97;;
7410;SDS011;3747;48.628;9.058;2022-08-27T00:15:58;31.40;;;24.30;;
7410;SDS011;3747;48.628;9.058;2022-08-27T00:18:26;28.63;;;23.80;;
7410;SDS011;3747;48.628;9.058;2022-08-27T00:20:53;29.03;;;23.77;;
7410;SDS011;3747;48.628;9.058;2022-08-27T00:23:19;29.70;;;23.77;;
7410;SDS011;3747;48.628;9.058;2022-08-27T00:25:46;29.60;;;24.53;;
7410;SDS011;3747;48.628;9.058;2022-08-27T00:28:13;26.97;;;23.17;;
7410;SDS011;3747;48.628;9.058;2022-08-27T00:30:40;30.47;;;23.73;;
7410;SDS011;3747;48.628;9.058;2022-08-27T00:33:06;27.77;;;23.80;;
7410;SDS011;3747;48.628;9.058;2022-08-27T00:35:34;26.30;;;22.23;;
7410;SDS011;3747;48.628;9.058;2022-08-27T00:38:02;26.20;;;22.33;;
7410;SDS011;3747;48.628;9.058;2022-08-27T00:40:29;31.60;;;22.97;;
7410;SDS011;3747;48.628;9.058;2022-08-27T00:42:57;29.77;;;22.97;;
7410;SDS011;3747;48.628;9.058;2022-08-27T00:45:27;33.17;;;25.60;;
7410;SDS011;3747;48.628;9.058;2022-08-27T00:47:58;31.23;;;25.43;;
7410;SDS011;3747;48.628;9.058;2022-08-27T00:50:28;33.80;;;26.57;;
7410;SDS011;3747;48.628;9.058;2022-08-27T00:53:02;32.13;;;27.70;;
7410;SDS011;3747;48.628;9.058;2022-08-27T00:55:32;38.73;;;28.93;;
7410;SDS011;3747;48.628;9.058;2022-08-27T00:58:03;37.47;;;29.33;;
7410;SDS011;3747;48.628;9.058;2022-08-27T01:00:35;36.47;;;28.67;;
7410;SDS011;3747;48.628;9.058;2022-08-27T01:03:03;37.60;;;28.83;;
7410;SDS011;3747;48.628;9.058;2022-08-27T01:05:31;36.23;;;29.67;;
7410;SDS011;3747;48.628;9.058;2022-08-27T01:08:02;38.70;;;30.87;;
7410;SDS011;3747;48.628;9.058;2022-08-27T01:10:33;37.93;;;29.53;;
7410;SDS011;3747;48.628;9.058;2022-08-27T01:13:00;40.07;;;27.77;;
7410;SDS011;3747;48.628;9.058;2022-08-27T01:15:27;43.73;;;30.53;;
7410;SDS011;3747;48.628;9.058;2022-08-27T01:17:55;41.83;;;30.23;;
7410;SDS011;3747;48.628;9.058;2022-08-27T01:20:24;39.23;;;29.77;;
7410;SDS011;3747;48.628;9.058;2022-08-27T01:22:56;42.07;;;30.47;;
7410;SDS011;3747;48.628;9.058;2022-08-27T01:25:30;36.50;;;28.43;;
7410;SDS011;3747;48.628;9.058;2022-08-27T01:27:58;38.70;;;29.83;;
7410;SDS011;3747;48.628;9.058;2022-08-27T01:30:27;41.43;;;30.13;;
7410;SDS011;3747;48.628;9.058;2022-08-27T01:32:55;38.53;;;29.17;;
7410;SDS011;3747;48.628;9.058;2022-08-27T01:35:22;36.53;;;28.80;;
7410;SDS011;3747;48.628;9.058;2022-08-27T01:37:50;37.70;;;28.57;;
7410;SDS011;3747;48.628;9.058;2022-08-27T01:40:19;37.23;;;28.37;;
7410;SDS011;3747;48.628;9.058;2022-08-27T01:42:48;36.97;;;29.30;;
7410;SDS011;3747;48.628;9.058;2022-08-27T01:45:18;35.63;;;28.57;;
7410;SDS011;3747;48.628;9.058;2022-08-27T01:47:46;39.93;;;28.93;;
7410;SDS011;3747;48.628;9.058;2022-08-27T01:50:14;39.90;;;29.40;;
7410;SDS011;3747;48.628;9.058;2022-08-27T01:52:43;34.67;;;28.20;;
7410;SDS011;3747;48.628;9.058;2022-08-27T01:55:11;37.53;;;26.57;;
7410;SDS011;3747;48.628;9.058;2022-08-27T01:57:40;33.17;;;26.23;;
7410;SDS011;3747;48.628;9.058;2022-08-27T02:00:10;34.03;;;26.97;;
7410;SDS011;3747;48.628;9.058;2022-08-27T02:02:39;33.87;;;25.23;;
7410;SDS011;3747;48.628;9.058;2022-08-27T02:05:07;31.83;;;25.63;;
7410;SDS011;3747;48.628;9.058;2022-08-27T02:07:34;33.00;;;25.27;;
7410;SDS011;3747;48.628;9.058;2022-08-27T02:10:02;30.30;;;25.10;;
7410;SDS011;3747;48.628;9.058;2022-08-27T02:12:29;30.80;;;24.50;;
7410;SDS011;3747;48.628;9.058;2022-08-27T02:14:56;35.00;;;26.20;;
7410;SDS011;3747;48.628;9.058;2022-08-27T02:17:24;32.97;;;24.93;;
7410;SDS011;3747;48.628;9.058;2022-08-27T02:19:50;35.37;;;27.20;;
7410;SDS011;3747;48.628;9.058;2022-08-27T02:22:18;32.27;;;25.10;;
7410;SDS011;3747;48.628;9.058;2022-08-27T02:24:45;35.07;;;27.93;;
7410;SDS011;3747;48.628;9.058;2022-08-27T02:27:12;35.97;;;28.10;;
7410;SDS011;3747;48.628;9.058;2022-08-27T02:29:39;40.33;;;30.20;;
7410;SDS011;3747;48.628;9.058;2022-08-27T02:32:05;39.17;;;29.13;;
7410;SDS011;3747;48.628;9.058;2022-08-27T02:34:34;45.30;;;32.50;;
7410;SDS011;3747;48.628;9.058;2022-08-27T02:37:00;46.07;;;33.77;;
7410;SDS011;3747;48.628;9.058;2022-08-27T02:39:27;49.93;;;35.27;;
7410;SDS011;3747;48.628;9.058;2022-08-27T02:41:54;49.27;;;33.83;;
7410;SDS011;3747;48.628;9.058;2022-08-27T02:44:20;45.00;;;33.60;;
7410;SDS011;3747;48.628;9.058;2022-08-27T02:46:47;51.60;;;33.57;;
7410;SDS011;3747;48.628;9.058;2022-08-27T02:49:14;44.07;;;31.97;;
7410;SDS011;3747;48.628;9.058;2022-08-27T02:51:43;54.97;;;35.63;;
7410;SDS011;3747;48.628;9.058;2022-08-27T02:54:10;52.13;;;36.70;;
7410;SDS011;3747;48.628;9.058;2022-08-27T02:56:37;52.67;;;35.50;;
7410;SDS011;3747;48.628;9.058;2022-08-27T02:59:03;53.47;;;35.07;;
7410;SDS011;3747;48.628;9.058;2022-08-27T03:01:30;54.07;;;35.07;;
7410;SDS011;3747;48.628;9.058;2022-08-27T03:03:57;43.70;;;32.27;;
7410;SDS011;3747;48.628;9.058;2022-08-27T03:06:24;44.30;;;29.90;;
7410;SDS011;3747;48.628;9.058;2022-08-27T03:08:52;38.37;;;27.13;;
7410;SDS011;3747;48.628;9.058;2022-08-27T03:11:19;39.00;;;28.13;;
7410;SDS011;3747;48.628;9.058;2022-08-27T03:13:47;42.20;;;27.50;;
7410;SDS011;3747;48.628;9.058;2022-08-27T03:16:13;35.37;;;25.80;;
7410;SDS011;3747;48.628;9.058;2022-08-27T03:18:40;41.00;;;28.83;;
7410;SDS011;3747;48.628;9.058;2022-08-27T03:21:06;42.60;;;30.23;;
7410;SDS011;3747;48.628;9.058;2022-08-27T03:23:33;46.00;;;31.03;;
7410;SDS011;3747;48.628;9.058;2022-08-27T03:26:02;48.10;;;32.20;;
7410;SDS011;3747;48.628;9.058;2022-08-27T03:28:31;51.27;;;33.37;;
7410;SDS011;3747;48.628;9.058;2022-08-27T03:31:00;51.37;;;33.00;;
7410;SDS011;3747;48.628;9.058;2022-08-27T03:33:29;53.27;;;34.70;;
7410;SDS011;3747;48.628;9.058;2022-08-27T03:35:57;55.73;;;35.27;;
7410;SDS011;3747;48.628;9.058;2022-08-27T03:38:23;56.93;;;35.50;;
7410;SDS011;3747;48.628;9.058;2022-08-27T03:40:51;60.17;;;38.03;;
7410;SDS011;3747;48.628;9.058;2022-08-27T03:43:20;60.40;;;37.20;;
7410;SDS011;3747;48.628;9.058;2022-08-27T03:45:48;59.40;;;37.00;;
7410;SDS011;3747;48.628;9.058;2022-08-27T03:48:15;60.83;;;39.27;;
7410;SDS011;3747;48.628;9.058;2022-08-27T03:50:43;63.57;;;39.63;;
7410;SDS011;3747;48.628;9.058;2022-08-27T03:53:12;62.83;;;38.40;;
7410;SDS011;3747;48.628;9.058;2022-08-27T03:55:40;60.30;;;39.17;;
7410;SDS011;3747;48.628;9.058;2022-08-27T03:58:07;59.50;;;38.50;;
7410;SDS011;3747;48.628;9.058;2022-08-27T04:00:36;51.03;;;35.73;;
7410;SDS011;3747;48.628;9.058;2022-08-27T04:03:04;55.50;;;37.93;;
7410;SDS011;3747;48.628;9.058;2022-08-27T04:05:31;54.10;;;37.70;;
7410;SDS011;3747;48.628;9.058;2022-08-27T04:07:58;46.70;;;34.00;;
7410;SDS011;3747;48.628;9.058;2022-08-27T04:10:25;49.20;;;35.73;;
7410;SDS011;3747;48.628;9.058;2022-08-27T04:12:52;50.07;;;36.10;;
7410;SDS011;3747;48.628;9.058;2022-08-27T04:15:19;59.90;;;42.57;;
7410;SDS011;3747;48.628;9.058;2022-08-27T04:17:47;65.30;;;48.00;;
7410;SDS011;3747;48.628;9.058;2022-08-27T04:20:14;66.93;;;48.30;;
7410;SDS011;3747;48.628;9.058;2022-08-27T04:22:40;66.47;;;46.07;;
7410;SDS011;3747;48.628;9.058;2022-08-27T04:25:07;63.97;;;44.97;;
7410;SDS011;3747;48.628;9.058;2022-08-27T04:27:34;62.23;;;45.73;;
7410;SDS011;3747;48.628;9.058;2022-08-27T04:30:01;76.93;;;56.13;;
7410;SDS011;3747;48.628;9.058;2022-08-27T04:32:28;79.47;;;60.10;;
7410;SDS011;3747;48.628;9.058;2022-08-27T04:34:58;83.63;;;61.83;;
7410;SDS011;3747;48.628;9.058;2022-08-27T04:37:25;93.27;;;67.87;;
7410;SDS011;3747;48.628;9.058;2022-08-27T04:39:55;94.03;;;70.10;;
7410;SDS011;3747;48.628;9.058;2022-08-27T04:42:22;99.33;;;71.33;;
7410;SDS011;3747;48.628;9.058;2022-08-27T04:44:49;99.73;;;74.67;;
7410;SDS011;3747;48.628;9.058;2022-08-27T04:47:17;103.50;;;76.00;;
7410;SDS011;3747;48.628;9.058;2022-08-27T04:49:44;106.83;;;74.57;;
7410;SDS011;3747;48.628;9.058;2022-08-27T04:52:13;109.60;;;74.73;;
7410;SDS011;3747;48.628;9.058;2022-08-27T04:54:39;97.23;;;72.60;;
7410;SDS011;3747;48.628;9.058;2022-08-27T04:57:06;106.23;;;78.70;;
7410;SDS011;3747;48.628;9.058;2022-08-27T04:59:34;105.87;;;75.10;;
7410;SDS011;3747;48.628;9.058;2022-08-27T05:02:03;105.43;;;75.47;;
7410;SDS011;3747;48.628;9.058;2022-08-27T05:04:33;107.87;;;77.20;;
7410;SDS011;3747;48.628;9.058;2022-08-27T05:07:01;107.47;;;76.23;;
7410;SDS011;3747;48.628;9.058;2022-08-27T05:09:29;109.40;;;76.27;;
7410;SDS011;3747;48.628;9.058;2022-08-27T05:11:56;110.47;;;74.30;;
7410;SDS011;3747;48.628;9.058;2022-08-27T05:14:24;114.10;;;77.30;;
7410;SDS011;3747;48.628;9.058;2022-08-27T05:16:54;115.60;;;76.10;;
7410;SDS011;3747;48.628;9.058;2022-08-27T05:19:21;106.13;;;72.43;;
7410;SDS011;3747;48.628;9.058;2022-08-27T05:21:48;111.97;;;76.77;;
7410;SDS011;3747;48.628;9.058;2022-08-27T05:24:16;111.60;;;74.03;;
7410;SDS011;3747;48.628;9.058;2022-08-27T05:26:45;103.87;;;69.83;;
7410;SDS011;3747;48.628;9.058;2022-08-27T05:29:12;109.70;;;74.50;;
7410;SDS011;3747;48.628;9.058;2022-08-27T05:31:40;109.13;;;71.87;;
7410;SDS011;3747;48.628;9.058;2022-08-27T05:34:07;112.47;;;73.87;;
7410;SDS011;3747;48.628;9.058;2022-08-27T05:36:35;110.70;;;73.70;;
7410;SDS011;3747;48.628;9.058;2022-08-27T05:39:04;113.27;;;72.57;;
7410;SDS011;3747;48.628;9.058;2022-08-27T05:41:32;105.27;;;70.30;;
7410;SDS011;3747;48.628;9.058;2022-08-27T05:44:01;102.00;;;69.87;;
7410;SDS011;3747;48.628;9.058;2022-08-27T05:46:30;101.93;;;68.67;;
7410;SDS011;3747;48.628;9.058;2022-08-27T05:48:57;104.17;;;70.87;;
7410;SDS011;3747;48.628;9.058;2022-08-27T05:51:26;89.60;;;64.37;;
7410;SDS011;3747;48.628;9.058;2022-08-27T05:53:54;100.00;;;66.47;;
7410;SDS011;3747;48.628;9.058;2022-08-27T05:56:22;97.80;;;66.50;;
7410;SDS011;3747;48.628;9.058;2022-08-27T05:58:50;91.03;;;63.10;;
7410;SDS011;3747;48.628;9.058;2022-08-27T06:01:37;87.23;;;58.90;;
7410;SDS011;3747;48.628;9.058;2022-08-27T06:04:05;79.70;;;55.80;;
7410;SDS011;3747;48.628;9.058;2022-08-27T06:06:33;79.30;;;54.63;;
7410;SDS011;3747;48.628;9.058;2022-08-27T06:09:00;72.83;;;53.53;;
7410;SDS011;3747;48.628;9.058;2022-08-27T06:11:27;73.27;;;52.57;;
7410;SDS011;3747;48.628;9.058;2022-08-27T06:13:54;70.27;;;50.50;;
7410;SDS011;3747;48.628;9.058;2022-08-27T06:16:20;66.97;;;50.23;;
7410;SDS011;3747;48.628;9.058;2022-08-27T06:18:49;61.80;;;46.07;;
7410;SDS011;3747;48.628;9.058;2022-08-27T06:21:16;65.30;;;47.90;;
7410;SDS011;3747;48.628;9.058;2022-08-27T06:23:44;60.90;;;46.03;;
7410;SDS011;3747;48.628;9.058;2022-08-27T06:26:12;63.73;;;46.17;;
7410;SDS011;3747;48.628;9.058;2022-08-27T06:28:40;64.57;;;46.43;;
7410;SDS011;3747;48.628;9.058;2022-08-27T06:31:09;58.70;;;45.13;;
7410;SDS011;3747;48.628;9.058;2022-08-27T06:33:38;60.37;;;44.53;;
7410;SDS011;3747;48.628;9.058;2022-08-27T06:36:08;60.17;;;44.87;;
7410;SDS011;3747;48.628;9.058;2022-08-27T06:38:36;62.60;;;45.13;;
7410;SDS011;3747;48.628;9.058;2022-08-27T06:41:04;59.03;;;45.20;;
7410;SDS011;3747;48.628;9.058;2022-08-27T06:43:33;63.27;;;46.60;;
7410;SDS011;3747;48.628;9.058;2022-08-27T06:46:00;59.40;;;45.57;;
7410;SDS011;3747;48.628;9.058;2022-08-27T06:48:28;63.53;;;46.30;;
7410;SDS011;3747;48.628;9.058;2022-08-27T06:50:55;64.60;;;48.80;;
7410;SDS011;3747;48.628;9.058;2022-08-27T06:53:23;59.97;;;45.60;;
7410;SDS011;3747;48.628;9.058;2022-08-27T06:55:50;61.30;;;46.53;;
7410;SDS011;3747;48.628;9.058;2022-08-27T06:58:17;67.90;;;50.07;;
7410;SDS011;3747;48.628;9.058;2022-08-27T07:00:44;66.30;;;47.73;;
7410;SDS011;3747;48.628;9.058;2022-08-27T07:03:11;60.93;;;48.43;;
7410;SDS011;3747;48.628;9.058;2022-08-27T07:05:38;65.60;;;49.00;;
7410;SDS011;3747;48.628;9.058;2022-08-27T07:08:05;63.73;;;47.70;;
7410;SDS011;3747;48.628;9.058;2022-08-27T07:10:34;66.87;;;49.10;;
7410;SDS011;3747;48.628;9.058;2022-08-27T07:13:01;65.23;;;47.90;;
7410;SDS011;3747;48.628;9.058;2022-08-27T07:15:29;66.60;;;48.17;;
7410;SDS011;3747;48.628;9.058;2022-08-27T07:17:56;63.17;;;45.93;;
7410;SDS011;3747;48.628;9.058;2022-08-27T07:20:23;59.13;;;46.40;;
7410;SDS011;3747;48.628;9.058;2022-08-27T07:22:50;57.53;;;45.13;;
7410;SDS011;3747;48.628;9.058;2022-08-27T07:25:18;58.70;;;43.07;;
7410;SDS011;3747;48.628;9.058;2022-08-27T07:27:47;51.57;;;41.80;;
7410;SDS011;3747;48.628;9.058;2022-08-27T07:30:14;51.93;;;41.17;;
7410;SDS011;3747;48.628;9.058;2022-08-27T07:32:42;53.77;;;40.73;;
7410;SDS011;3747;48.628;9.058;2022-08-27T07:35:11;47.40;;;38.60;;
7410;SDS011;3747;48.628;9.058;2022-08-27T07:37:38;46.40;;;38.17;;
7410;SDS011;3747;48.628;9.058;2022-08-27T07:40:08;47.37;;;36.93;;
7410;SDS011;3747;48.628;9.058;2022-08-27T07:42:37;41.90;;;35.00;;
7410;SDS011;3747;48.628;9.058;2022-08-27T07:45:23;43.97;;;35.57;;
7410;SDS011;3747;48.628;9.058;2022-08-27T07:47:50;40.90;;;35.77;;
7410;SDS011;3747;48.628;9.058;2022-08-27T07:50:18;43.37;;;33.33;;
7410;SDS011;3747;48.628;9.058;2022-08-27T07:52:46;40.13;;;32.57;;
7410;SDS011;3747;48.628;9.058;2022-08-27T07:55:13;40.63;;;34.37;;
7410;SDS011;3747;48.628;9.058;2022-08-27T07:57:40;40.87;;;33.53;;
7410;SDS011;3747;48.628;9.058;2022-08-27T08:00:09;42.03;;;33.60;;
7410;SDS011;3747;48.628;9.058;2022-08-27T08:02:38;38.47;;;32.43;;
7410;SDS011;3747;48.628;9.058;2022-08-27T08:05:09;39.30;;;34.10;;
7410;SDS011;3747;48.628;9.058;2022-08-27T08:07:36;39.17;;;34.07;;
7410;SDS011;3747;48.628;9.058;2022-08-27T08:10:04;48.40;;;35.77;;
7410;SDS011;3747;48.628;9.058;2022-08-27T08:12:31;43.43;;;35.83;;
7410;SDS011;3747;48.628;9.058;2022-08-27T08:15:00;43.70;;;34.53;;
7410;SDS011;3747;48.628;9.058;2022-08-27T08:17:27;46.17;;;36.43;;
7410;SDS011;3747;48.628;9.058;2022-08-27T08:19:56;46.00;;;36.17;;
7410;SDS011;3747;48.628;9.058;2022-08-27T08:22:22;46.03;;;36.60;;
7410;SDS011;3747;48.628;9.058;2022-08-27T08:24:49;45.60;;;36.10;;
7410;SDS011;3747;48.628;9.058;2022-08-27T08:27:17;51.27;;;37.03;;
7410;SDS011;3747;48.628;9.058;2022-08-27T08:29:44;42.80;;;35.30;;
7410;SDS011;3747;48.628;9.058;2022-08-27T08:32:12;44.87;;;35.33;;
7410;SDS011;3747;48.628;9.058;2022-08-27T08:34:39;43.63;;;34.27;;
7410;SDS011;3747;48.628;9.058;2022-08-27T08:37:07;45.47;;;37.37;;
7410;SDS011;3747;48.628;9.058;2022-08-27T08:39:35;48.73;;;35.90;;
7410;SDS011;3747;48.628;9.058;2022-08-27T08:42:03;40.63;;;33.37;;
7410;SDS011;3747;48.628;9.058;2022-08-27T08:44:33;43.90;;;35.67;;
7410;SDS011;3747;48.628;9.058;2022-08-27T08:47:04;49.07;;;37.13;;
7410;SDS011;3747;48.628;9.058;2022-08-27T08:49:37;44.17;;;34.30;;
7410;SDS011;3747;48.628;9.058;2022-08-27T08:52:13;45.40;;;34.07;;
7410;SDS011;3747;48.628;9.058;2022-08-27T08:54:45;39.30;;;31.93;;
7410;SDS011;3747;48.628;9.058;2022-08-27T08:57:15;40.97;;;33.23;;
7410;SDS011;3747;48.628;9.058;2022-08-27T08:59:50;39.83;;;30.40;;
7410;SDS011;3747;48.628;9.058;2022-08-27T09:02:23;37.67;;;30.20;;
7410;SDS011;3747;48.628;9.058;2022-08-27T09:04:49;35.87;;;29.93;;
7410;SDS011;3747;48.628;9.058;2022-08-27T09:10:18;41.27;;;31.77;;
7410;SDS011;3747;48.628;9.058;2022-08-27T09:12:51;37.47;;;31.37;;
7410;SDS011;3747;48.628;9.058;2022-08-27T09:15:21;38.13;;;31.30;;
7410;SDS011;3747;48.628;9.058;2022-08-27T09:17:51;37.50;;;31.37;;
7410;SDS011;3747;48.628;9.058;2022-08-27T09:20:29;38.97;;;30.93;;
7410;SDS011;3747;48.628;9.058;2022-08-27T09:23:00;36.07;;;31.73;;
7410;SDS011;3747;48.628;9.058;2022-08-27T09:25:36;41.77;;;34.10;;
7410;SDS011;3747;48.628;9.058;2022-08-27T09:28:06;43.27;;;32.07;;
7410;SDS011;3747;48.628;9.058;2022-08-27T09:30:57;40.67;;;32.40;;
7410;SDS011;3747;48.628;9.058;2022-08-27T09:33:34;45.00;;;33.87;;
7410;SDS011;3747;48.628;9.058;2022-08-27T09:36:02;40.20;;;32.80;;
7410;SDS011;3747;48.628;9.058;2022-08-27T09:38:32;45.53;;;34.80;;
7410;SDS011;3747;48.628;9.058;2022-08-27T09:41:01;46.27;;;34.83;;
7410;SDS011;3747;48.628;9.058;2022-08-27T09:43:32;44.00;;;33.73;;
7410;SDS011;3747;48.628;9.058;2022-08-27T09:46:01;47.03;;;37.83;;
7410;SDS011;3747;48.628;9.058;2022-08-27T09:48:33;47.27;;;35.40;;
7410;SDS011;3747;48.628;9.058;2022-08-27T09:51:04;46.43;;;35.70;;
7410;SDS011;3747;48.628;9.058;2022-08-27T09:53:36;46.87;;;34.40;;
7410;SDS011;3747;48.628;9.058;2022-08-27T09:56:09;45.33;;;32.80;;
7410;SDS011;3747;48.628;9.058;2022-08-27T09:58:47;43.60;;;32.10;;
7410;SDS011;3747;48.628;9.058;2022-08-27T10:01:18;40.47;;;31.30;;
7410;SDS011;3747;48.628;9.058;2022-08-27T10:03:46;39.93;;;31.53;;
7410;SDS011;3747;48.628;9.058;2022-08-27T10:06:13;43.07;;;32.43;;
7410;SDS011;3747;48.628;9.058;2022-08-27T10:08:52;41.07;;;32.63;;
7410;SDS011;3747;48.628;9.058;2022-08-27T10:11:23;40.33;;;32.83;;
7410;SDS011;3747;48.628;9.058;2022-08-27T10:13:56;43.93;;;31.93;;
7410;SDS011;3747;48.628;9.058;2022-08-27T10:19:25;34.10;;;25.90;;
7410;SDS011;3747;48.628;9.058;2022-08-27T10:22:04;29.27;;;25.03;;
7410;SDS011;3747;48.628;9.058;2022-08-27T10:24:45;36.83;;;26.83;;
7410;SDS011;3747;48.628;9.058;2022-08-27T10:27:21;35.03;;;25.90;;
7410;SDS011;3747;48.628;9.058;2022-08-27T10:29:56;32.70;;;25.60;;
7410;SDS011;3747;48.628;9.058;2022-08-27T10:32:33;35.33;;;26.23;;
7410;SDS011;3747;48.628;9.058;2022-08-27T10:35:18;35.10;;;27.33;;
7410;SDS011;3747;48.628;9.058;2022-08-27T10:37:56;33.83;;;28.17;;
7410;SDS011;3747;48.628;9.058;2022-08-27T10:40:35;35.20;;;28.27;;
7410;SDS011;3747;48.628;9.058;2022-08-27T10:43:12;36.60;;;28.90;;
7410;SDS011;3747;48.628;9.058;2022-08-27T10:46:09;37.33;;;29.70;;
7410;SDS011;3747;48.628;9.058;2022-08-27T10:48:55;37.27;;;28.87;;
7410;SDS011;3747;48.628;9.058;2022-08-27T10:51:28;35.33;;;27.40;;
7410;SDS011;3747;48.628;9.058;2022-08-27T10:53:59;31.23;;;26.27;;
7410;SDS011;3747;48.628;9.058;2022-08-27T10:56:32;33.10;;;26.77;;
7410;SDS011;3747;48.628;9.058;2022-08-27T10:59:05;29.83;;;25.53;;
7410;SDS011;3747;48.628;9.058;2022-08-27T11:01:45;32.27;;;25.57;;
7410;SDS011;3747;48.628;9.058;2022-08-27T11:04:23;29.07;;;25.20;;
7410;SDS011;3747;48.628;9.058;2022-08-27T11:06:57;28.60;;;24.50;;
7410;SDS011;3747;48.628;9.058;2022-08-27T11:09:31;32.40;;;26.47;;
7410;SDS011;3747;48.628;9.058;2022-08-27T11:12:04;30.20;;;25.40;;
7410;SDS011;3747;48.628;9.058;2022-08-27T11:14:34;27.17;;;23.07;;
7410;SDS011;3747;48.628;9.058;2022-08-27T11:17:07;26.17;;;23.27;;
7410;SDS011;3747;48.628;9.058;2022-08-27T11:22:24;28.63;;;22.53;;
7410;SDS011;3747;48.628;9.058;2022-08-27T11:25:00;28.30;;;23.00;;
7410;SDS011;3747;48.628;9.058;2022-08-27T11:27:32;25.20;;;21.33;;
7410;SDS011;3747;48.628;9.058;2022-08-27T11:30:02;26.63;;;21.37;;
7410;SDS011;3747;48.628;9.058;2022-08-27T11:32:34;32.90;;;23.23;;
7410;SDS011;3747;48.628;9.058;2022-08-27T11:35:11;32.33;;;21.30;;
7410;SDS011;3747;48.628;9.058;2022-08-27T11:37:47;24.20;;;20.10;;
7410;SDS011;3747;48.628;9.058;2022-08-27T11:40:33;20.97;;;18.63;;
7410;SDS011;3747;48.628;9.058;2022-08-27T11:43:15;21.60;;;19.10;;
7410;SDS011;3747;48.628;9.058;2022-08-27T11:45:52;20.57;;;17.80;;
7410;SDS011;3747;48.628;9.058;2022-08-27T11:48:22;17.83;;;16.00;;
7410;SDS011;3747;48.628;9.058;2022-08-27T11:50:53;18.60;;;16.70;;
7410;SDS011;3747;48.628;9.058;2022-08-27T11:53:41;17.10;;;15.27;;
7410;SDS011;3747;48.628;9.058;2022-08-27T11:56:31;19.40;;;15.83;;
7410;SDS011;3747;48.628;9.058;2022-08-27T11:59:09;20.43;;;15.73;;
7410;SDS011;3747;48.628;9.058;2022-08-27T12:01:44;19.33;;;16.97;;
7410;SDS011;3747;48.628;9.058;2022-08-27T12:04:18;19.73;;;16.47;;
7410;SDS011;3747;48.628;9.058;2022-08-27T12:06:49;19.53;;;17.30;;
7410;SDS011;3747;48.628;9.058;2022-08-27T12:09:19;18.90;;;17.00;;
7410;SDS011;3747;48.628;9.058;2022-08-27T12:11:50;20.13;;;18.13;;
7410;SDS011;3747;48.628;9.058;2022-08-27T12:14:35;22.00;;;18.80;;
7410;SDS011;3747;48.628;9.058;2022-08-27T12:17:10;29.13;;;18.80;;
7410;SDS011;3747;48.628;9.058;2022-08-27T12:19:55;21.97;;;18.83;;
7410;SDS011;3747;48.628;9.058;2022-08-27T12:22:47;23.57;;;17.87;;
7410;SDS011;3747;48.628;9.058;2022-08-27T12:25:39;23.77;;;18.93;;
7410;SDS011;3747;48.628;9.058;2022-08-27T12:28:07;25.70;;;19.53;;
7410;SDS011;3747;48.628;9.058;2022-08-27T12:30:35;21.77;;;17.60;;
7410;SDS011;3747;48.628;9.058;2022-08-27T12:33:09;21.40;;;18.20;;
7410;SDS011;3747;48.628;9.058;2022-08-27T12:35:43;21.93;;;19.40;;
7410;SDS011;3747;48.628;9.058;2022-08-27T12:38:14;21.43;;;18.43;;
7410;SDS011;3747;48.628;9.058;2022-08-27T12:40:45;21.57;;;19.13;;
7410;SDS011;3747;48.628;9.058;2022-08-27T12:43:16;21.70;;;19.40;;
7410;SDS011;3747;48.628;9.058;2022-08-27T12:46:04;21.10;;;18.90;;
7410;SDS011;3747;48.628;9.058;2022-08-27T12:48:35;23.53;;;19.73;;
7410;SDS011;3747;48.628;9.058;2022-08-27T12:51:06;22.63;;;18.87;;
7410;SDS011;3747;48.628;9.058;2022-08-27T12:53:39;24.43;;;19.53;;
7410;SDS011;3747;48.628;9.058;2022-08-27T12:56:23;22.77;;;20.50;;
7410;SDS011;3747;48.628;9.058;2022-08-27T12:59:26;21.87;;;18.67;;
7410;SDS011;3747;48.628;9.058;2022-08-27T13:02:08;20.63;;;18.53;;
7410;SDS011;3747;48.628;9.058;2022-08-27T13:04:45;23.00;;;19.37;;
7410;SDS011;3747;48.628;9.058;2022-08-27T13:07:23;21.47;;;19.17;;
7410;SDS011;3747;48.628;9.058;2022-08-27T13:09:51;21.60;;;18.43;;
7410;SDS011;3747;48.628;9.058;2022-08-27T13:12:17;21.50;;;18.93;;
7410;SDS011;3747;48.628;9.058;2022-08-27T13:14:45;20.40;;;18.40;;
7410;SDS011;3747;48.628;9.058;2022-08-27T13:17:14;20.00;;;17.63;;
7410;SDS011;3747;48.628;9.058;2022-08-27T13:19:44;19.13;;;17.23;;
7410;SDS011;3747;48.628;9.058;2022-08-27T13:22:25;19.47;;;17.50;;
7410;SDS011;3747;48.628;9.058;2022-08-27T13:24:56;19.93;;;18.00;;
7410;SDS011;3747;48.628;9.058;2022-08-27T13:27:25;20.07;;;17.63;;
7410;SDS011;3747;48.628;9.058;2022-08-27T13:29:52;19.20;;;16.60;;
7410;SDS011;3747;48.628;9.058;2022-08-27T13:32:21;19.40;;;17.33;;
7410;SDS011;3747;48.628;9.058;2022-08-27T13:34:52;19.67;;;17.70;;
7410;SDS011;3747;48.628;9.058;2022-08-27T13:37:21;20.27;;;16.63;;
7410;SDS011;3747;48.628;9.058;2022-08-27T13:39:51;18.47;;;16.67;;
7410;SDS011;3747;48.628;9.058;2022-08-27T13:42:19;17.93;;;16.17;;
7410;SDS011;3747;48.628;9.058;2022-08-27T13:44:46;18.00;;;16.30;;
7410;SDS011;3747;48.628;9.058;2022-08-27T13:47:14;19.57;;;17.37;;
7410;SDS011;3747;48.628;9.058;2022-08-27T13:52:21;19.20;;;17.23;;
7410;SDS011;3747;48.628;9.058;2022-08-27T13:57:38;19.90;;;17.07;;
7410;SDS011;3747;48.628;9.058;2022-08-27T14:00:07;19.40;;;17.37;;
7410;SDS011;3747;48.628;9.058;2022-08-27T14:02:36;18.73;;;16.83;;
7410;SDS011;3747;48.628;9.058;2022-08-27T14:05:05;20.30;;;18.20;;
7410;SDS011;3747;48.628;9.058;2022-08-27T14:07:36;19.03;;;17.07;;
7410;SDS011;3747;48.628;9.058;2022-08-27T14:10:05;19.30;;;17.47;;
7410;SDS011;3747;48.628;9.058;2022-08-27T14:12:45;20.40;;;18.20;;
7410;SDS011;3747;48.628;9.058;2022-08-27T14:15:21;22.30;;;18.50;;
7410;SDS011;3747;48.628;9.058;2022-08-27T14:17:53;19.83;;;17.80;;
7410;SDS011;3747;48.628;9.058;2022-08-27T14:20:24;21.30;;;18.73;;
7410;SDS011;3747;48.628;9.058;2022-08-27T14:22:50;19.50;;;17.47;;
7410;SDS011;3747;48.628;9.058;2022-08-27T14:25:18;19.90;;;17.97;;
7410;SDS011;3747;48.628;9.058;2022-08-27T14:27:45;18.87;;;17.07;;
7410;SDS011;3747;48.628;9.058;2022-08-27T14:30:13;18.00;;;16.10;;
7410;SDS011;3747;48.628;9.058;2022-08-27T14:32:41;19.17;;;16.23;;
7410;SDS011;3747;48.628;9.058;2022-08-27T14:35:08;17.20;;;15.33;;
7410;SDS011;3747;48.628;9.058;2022-08-27T14:37:37;18.73;;;16.73;;
7410;SDS011;3747;48.628;9.058;2022-08-27T14:40:05;17.30;;;15.37;;
7410;SDS011;3747;48.628;9.058;2022-08-27T14:42:33;19.93;;;16.73;;
7410;SDS011;3747;48.628;9.058;2022-08-27T14:44:59;17.97;;;16.17;;
7410;SDS011;3747;48.628;9.058;2022-08-27T14:47:26;17.57;;;15.90;;
7410;SDS011;3747;48.628;9.058;2022-08-27T14:49:53;18.87;;;16.97;;
7410;SDS011;3747;48.628;9.058;2022-08-27T14:52:21;18.20;;;16.17;;
7410;SDS011;3747;48.628;9.058;2022-08-27T14:54:49;18.40;;;15.20;;
7410;SDS011;3747;48.628;9.058;2022-08-27T14:57:16;17.97;;;16.10;;
7410;SDS011;3747;48.628;9.058;2022-08-27T14:59:43;19.03;;;17.03;;
7410;SDS011;3747;48.628;9.058;2022-08-27T15:02:11;19.60;;;16.20;;
7410;SDS011;3747;48.628;9.058;2022-08-27T15:04:39;19.43;;;17.23;;
7410;SDS011;3747;48.628;9.058;2022-08-27T15:07:05;16.70;;;15.00;;
7410;SDS011;3747;48.628;9.058;2022-08-27T15:09:32;19.27;;;16.83;;
7410;SDS011;3747;48.628;9.058;2022-08-27T15:12:00;21.43;;;18.10;;
7410;SDS011;3747;48.628;9.058;2022-08-27T15:14:28;18.67;;;16.77;;
7410;SDS011;3747;48.628;9.058;2022-08-27T15:16:57;18.10;;;15.80;;